createdAt,value
2019-02-15T00:03:49.725Z,68.64
2019-02-15T00:08:54.973Z,68.93
2019-02-15T00:14:00.238Z,69.22
2019-02-15T00:19:07.221Z,68.83
2019-02-15T00:24:12.419Z,69.47
2019-02-15T00:29:18.225Z,69.34
2019-02-15T00:34:23.933Z,69.19
2019-02-15T00:39:29.283Z,69.08
2019-02-15T00:44:34.830Z,68.95
2019-02-15T00:49:41.942Z,68.58
2019-02-15T00:55:05.450Z,68.71
2019-02-15T01:00:21.436Z,68.52
2019-02-15T01:05:45.021Z,68.44
2019-02-15T01:10:52.018Z,68.59
2019-02-15T01:15:57.576Z,68.64
2019-02-15T01:21:02.946Z,68.97
2019-02-15T01:26:09.948Z,69.52
2019-02-15T01:31:19.703Z,69.76
2019-02-15T01:36:32.721Z,69.97
2019-02-15T01:41:41.911Z,70.59
2019-02-15T01:46:51.139Z,70.76
2019-02-15T01:51:56.461Z,70.97
2019-02-15T01:57:02.065Z,70.65
2019-02-15T02:02:07.841Z,70.94
2019-02-15T02:07:13.183Z,71.32
2019-02-15T02:12:18.437Z,71.55
2019-02-15T02:17:23.866Z,71.68
2019-02-15T02:22:29.277Z,71.79
2019-02-15T02:27:34.713Z,71.50
2019-02-15T02:32:40.190Z,71.32
2019-02-15T02:37:45.585Z,71.95
2019-02-15T02:42:51.020Z,71.99
2019-02-15T02:47:56.466Z,72.24
2019-02-15T02:53:01.738Z,72.60
2019-02-15T02:58:07.184Z,72.90
2019-02-15T03:03:12.542Z,72.70
2019-02-15T03:08:17.946Z,72.62
2019-02-15T03:13:23.047Z,72.64
2019-02-15T03:18:28.272Z,73.09
2019-02-15T03:23:33.399Z,73.12
2019-02-15T03:28:39.024Z,73.04
2019-02-15T03:33:44.329Z,72.66
2019-02-15T03:38:53.838Z,72.95
2019-02-15T03:43:59.206Z,72.97
2019-02-15T03:49:04.682Z,72.84
2019-02-15T03:54:09.971Z,72.96
2019-02-15T03:59:15.290Z,72.83
2019-02-15T04:04:20.633Z,72.73
2019-02-15T04:09:26.014Z,72.65
2019-02-15T04:14:33.079Z,73.06
2019-02-15T04:19:38.138Z,73.21
2019-02-15T04:24:43.188Z,73.33
2019-02-15T04:29:48.398Z,73.11
2019-02-15T04:34:53.814Z,73.13
2019-02-15T04:39:59.389Z,73.15
2019-02-15T04:45:06.829Z,73.12
2019-02-15T04:50:12.258Z,73.26
2019-02-15T04:55:17.642Z,73.07
2019-02-15T05:00:22.860Z,73.18
2019-02-15T05:05:28.210Z,73.06
2019-02-15T05:10:33.591Z,72.98
2019-02-15T05:15:38.936Z,73.55
2019-02-15T05:20:44.302Z,73.84
2019-02-15T05:25:49.675Z,73.69
2019-02-15T05:30:55.114Z,73.78
2019-02-15T05:36:00.379Z,73.78
2019-02-15T05:41:05.540Z,73.83
2019-02-15T05:46:10.883Z,73.78
2019-02-15T05:51:16.152Z,73.82
2019-02-15T05:56:21.491Z,73.66
2019-02-15T06:01:27.665Z,73.84
2019-02-15T06:06:32.932Z,73.78
2019-02-15T06:11:38.286Z,73.87
2019-02-15T06:16:43.549Z,73.48
2019-02-15T06:21:48.903Z,73.42
2019-02-15T06:26:54.124Z,73.41
2019-02-15T06:32:00.424Z,73.83
2019-02-15T06:37:05.716Z,73.98
2019-02-15T06:42:11.152Z,74.03
2019-02-15T06:47:16.449Z,73.96
2019-02-15T06:52:21.774Z,73.99
2019-02-15T06:57:27.164Z,74.27
2019-02-15T07:02:34.224Z,73.94
2019-02-15T07:07:39.489Z,73.87
2019-02-15T07:12:44.753Z,74.15
2019-02-15T07:17:50.307Z,73.77
2019-02-15T07:22:55.551Z,73.69
2019-02-15T07:28:00.901Z,73.50
2019-02-15T07:33:06.540Z,73.66
2019-02-15T07:38:12.164Z,73.35
2019-02-15T07:43:18.450Z,73.50
2019-02-15T07:48:23.796Z,73.10
2019-02-15T07:53:29.212Z,73.37
2019-02-15T07:58:35.190Z,73.50
2019-02-15T08:03:40.269Z,73.64
2019-02-15T08:08:45.516Z,73.52
2019-02-15T08:13:50.781Z,73.39
2019-02-15T08:18:56.038Z,73.71
2019-02-15T08:24:01.122Z,73.77
2019-02-15T08:29:06.462Z,73.78
2019-02-15T08:34:11.844Z,73.67
2019-02-15T08:39:18.403Z,73.51
2019-02-15T08:44:23.949Z,73.11
2019-02-15T08:49:29.344Z,72.85
2019-02-15T08:54:35.007Z,72.98
2019-02-15T08:59:40.221Z,72.86
2019-02-15T09:04:46.430Z,72.45
2019-02-15T09:09:51.493Z,72.35
2019-02-15T09:14:56.744Z,72.32
2019-02-15T09:20:02.198Z,71.93
2019-02-15T09:25:09.535Z,72.10
2019-02-15T09:30:15.776Z,72.44
2019-02-15T09:35:21.268Z,72.39
2019-02-15T09:40:26.420Z,72.50
2019-02-15T09:45:33.014Z,72.47
2019-02-15T09:50:38.536Z,72.59
2019-02-15T09:55:43.648Z,72.83
2019-02-15T10:00:48.951Z,72.67
2019-02-15T10:05:54.314Z,72.63
2019-02-15T10:10:59.561Z,72.55
2019-02-15T10:16:04.643Z,72.41
2019-02-15T10:21:09.877Z,72.21
2019-02-15T10:26:15.081Z,72.54
2019-02-15T10:31:20.481Z,72.18
2019-02-15T10:36:25.611Z,71.88
2019-02-15T10:41:31.029Z,72.35
2019-02-15T10:46:38.009Z,72.76
2019-02-15T10:51:43.794Z,72.49
2019-02-15T10:56:49.227Z,72.90
2019-02-15T11:01:54.806Z,73.32
2019-02-15T11:07:01.383Z,73.21
2019-02-15T11:12:06.960Z,73.08
2019-02-15T11:17:12.076Z,73.26
2019-02-15T11:22:17.566Z,73.33
2019-02-15T11:27:22.898Z,73.37
2019-02-15T11:32:28.230Z,73.13
2019-02-15T11:37:33.618Z,73.31
2019-02-15T11:42:38.903Z,73.18
2019-02-15T11:47:44.469Z,72.65
2019-02-15T11:52:49.826Z,73.07
2019-02-15T11:57:55.084Z,72.82
2019-02-15T12:03:00.243Z,72.72
2019-02-15T12:08:05.599Z,72.83
2019-02-15T12:13:10.987Z,72.75
2019-02-15T12:18:16.510Z,73.47
2019-02-15T12:23:22.483Z,73.69
2019-02-15T12:28:27.947Z,73.66
2019-02-15T12:33:33.301Z,74.16
2019-02-15T12:38:38.565Z,73.97
2019-02-15T12:43:43.822Z,74.13
2019-02-15T12:48:49.068Z,74.65
2019-02-15T12:53:54.583Z,74.71
2019-02-15T12:58:59.644Z,74.99
2019-02-15T13:04:04.938Z,75.16
2019-02-15T13:09:10.322Z,75.16
2019-02-15T13:14:15.872Z,75.11
2019-02-15T13:19:21.435Z,74.28
2019-02-15T13:24:26.643Z,74.08
2019-02-15T13:29:31.797Z,73.59
2019-02-15T13:34:37.277Z,73.81
2019-02-15T13:39:42.663Z,73.89
2019-02-15T13:44:48.053Z,73.32
2019-02-15T13:49:53.201Z,73.12
2019-02-15T13:54:58.575Z,73.90
2019-02-15T14:00:04.249Z,74.10
2019-02-15T14:05:11.628Z,74.53
2019-02-15T14:10:16.983Z,74.50
2019-02-15T14:15:23.652Z,74.27
2019-02-15T14:20:29.328Z,74.05
2019-02-15T14:25:34.685Z,73.87
2019-02-15T14:30:40.272Z,74.12
2019-02-15T14:35:46.012Z,73.84
2019-02-15T14:40:51.465Z,74.17
2019-02-15T14:45:56.724Z,74.66
2019-02-15T14:51:01.890Z,74.92
2019-02-15T14:56:07.202Z,74.69
2019-02-15T15:01:12.393Z,75.61
2019-02-15T15:06:17.859Z,75.35
2019-02-15T15:11:23.985Z,75.27
2019-02-15T15:16:30.304Z,74.81
2019-02-15T15:21:35.567Z,74.76
2019-02-15T15:26:40.728Z,75.41
2019-02-15T15:31:48.713Z,75.43
2019-02-15T15:36:54.409Z,75.56
2019-02-15T15:41:59.560Z,75.70
2019-02-15T15:47:05.444Z,75.58
2019-02-15T15:52:10.854Z,75.78
2019-02-15T15:57:16.248Z,75.65
2019-02-15T16:02:21.503Z,76.03
2019-02-15T16:07:26.963Z,75.96
2019-02-15T16:12:32.095Z,76.26
2019-02-15T16:17:37.796Z,76.15
2019-02-15T16:22:43.142Z,75.90
2019-02-15T16:27:48.507Z,75.85
2019-02-15T16:32:53.676Z,75.71
2019-02-15T16:37:59.132Z,75.59
2019-02-15T16:43:04.473Z,76.27
2019-02-15T16:48:09.915Z,76.47
2019-02-15T16:53:15.609Z,76.26
2019-02-15T16:58:20.972Z,76.07
2019-02-15T17:03:26.454Z,76.39
2019-02-15T17:08:31.990Z,76.29
2019-02-15T17:13:37.361Z,76.28
2019-02-15T17:18:51.144Z,76.35
2019-02-15T17:23:49.498Z,76.23
2019-02-15T17:28:54.990Z,75.90
2019-02-15T17:34:00.216Z,75.92
2019-02-15T17:39:06.303Z,76.00
2019-02-15T17:44:12.781Z,75.71
2019-02-15T17:49:18.033Z,75.62
2019-02-15T17:54:23.287Z,75.58
2019-02-15T17:59:28.536Z,75.35
2019-02-15T18:04:34.024Z,75.42
2019-02-15T18:09:39.397Z,75.34
2019-02-15T18:14:44.653Z,75.34
2019-02-15T18:19:49.724Z,75.37
2019-02-15T18:24:54.902Z,75.68
2019-02-15T18:29:59.984Z,75.92
2019-02-15T18:35:05.884Z,75.77
2019-02-15T18:40:11.739Z,75.57
2019-02-15T18:45:17.385Z,75.74
2019-02-15T18:50:22.868Z,75.83
2019-02-15T18:55:28.124Z,75.69
2019-02-15T19:00:33.468Z,75.37
2019-02-15T19:05:38.718Z,75.26
2019-02-15T19:10:43.987Z,75.21
2019-02-15T19:15:49.752Z,75.17
2019-02-15T19:20:55.139Z,74.97
2019-02-15T19:26:01.592Z,75.02
2019-02-15T19:31:07.255Z,74.90
2019-02-15T19:36:12.712Z,74.74
2019-02-15T19:41:17.979Z,74.27
2019-02-15T19:46:23.446Z,72.99
2019-02-15T19:51:28.908Z,72.62
2019-02-15T19:56:34.160Z,72.51
2019-02-15T20:01:39.609Z,72.70
2019-02-15T20:06:44.769Z,71.29
2019-02-15T20:11:50.342Z,69.91
2019-02-15T20:16:55.789Z,68.62
2019-02-15T20:22:01.457Z,67.25
2019-02-15T20:27:06.537Z,66.54
2019-02-15T20:32:11.965Z,65.48
2019-02-15T20:37:18.353Z,65.69
2019-02-15T20:42:23.557Z,66.59
2019-02-15T20:47:28.670Z,67.15
2019-02-15T20:52:33.929Z,66.07
2019-02-15T20:57:39.538Z,66.61
2019-02-15T21:02:44.960Z,66.58
2019-02-15T21:07:50.932Z,65.12
2019-02-15T21:12:56.378Z,66.09
2019-02-15T21:18:01.536Z,66.60
2019-02-15T21:23:07.000Z,66.70
2019-02-15T21:28:12.245Z,67.10
2019-02-15T21:33:17.405Z,67.06
2019-02-15T21:38:22.842Z,66.78
2019-02-15T21:43:28.134Z,67.43
2019-02-15T21:48:33.370Z,66.23
2019-02-15T21:53:38.851Z,66.63
2019-02-15T21:58:44.206Z,67.00
2019-02-15T22:03:49.543Z,67.18
2019-02-15T22:08:55.421Z,67.32
2019-02-15T22:14:01.207Z,67.47
2019-02-15T22:19:06.753Z,65.22
2019-02-15T22:24:11.943Z,65.34
2019-02-15T22:29:16.998Z,65.77
2019-02-15T22:34:22.328Z,65.12
2019-02-15T22:39:27.489Z,65.71
2019-02-15T22:44:33.235Z,65.75
2019-02-15T22:49:43.259Z,66.04
2019-02-15T22:54:45.780Z,65.73
2019-02-15T22:59:51.218Z,66.25
2019-02-15T23:04:56.836Z,66.51
2019-02-15T23:10:02.314Z,66.96
2019-02-15T23:15:08.249Z,66.73
2019-02-15T23:20:13.631Z,67.44
2019-02-15T23:25:19.043Z,67.73
2019-02-15T23:30:24.574Z,66.38
2019-02-15T23:35:29.804Z,66.34
2019-02-15T23:45:39.261Z,65.20
2019-02-15T23:50:44.439Z,65.35
2019-02-15T23:55:49.677Z,65.44
